Alhambra, CA

9:15 PM PDT on May 22, 2015 (GMT -0700)
Elephant Hill, South Pasadena | | Change Station
CLOSE
Current Station
Personal Weather Station
Location: South Pasadena, CA
Elevation: 823 ft
Nearby Weather Stations

Elev 823 ft 34.10 °N, 118.17 °W | Updated 6 minutes ago

Overcast
Overcast
58.5 °F
Feels Like 58.5 °F
N
0.0
Wind Variable Wind from NW
Gusts 3.0 mph

Today
High -- | Low -- °F
--% Chance of Precip.
Yesterday
High -- | Low -- °F
Precip. -- in
5:46 AM 7:52 PM
Waxing Crescent, 26% visible
Pressure 30.05 in
Visibility 10.0 miles
Clouds Overcast 5000 ft
Dew Point 52 °F
Humidity 78%
Rainfall 0.00 in
Snow Depth Not available.
UV 0 out of 12
Pollen 4.00 out of 12
Air Quality Not available.
Flu Activity Sporadic
METAR KCQT 230347Z AUTO 00000KT 10SM OVC050 17/11 A3005 RMK AO2 SLP174 T01670111

More Conditions Fewer Conditions

Pressure 30.05 in
Visibility 10.0 miles
Clouds Overcast 5000 ft
Dew Point 52 °F
Humidity 78%
Rainfall 0.00 in
Snow Depth Not available.
UV 0 out of 12
Pollen 4.00 out of 12
Air Quality Not available.
Flu Activity Sporadic
METAR KCQT 230347Z AUTO 00000KT 10SM OVC050 17/11 A3005 RMK AO2 SLP174 T01670111

More Conditions Fewer Conditions

10-Day Weather Forecast

Almanac

Astronomy

May. 22, 2015 Rise Set
Actual Time
Civil Twilight
Nautical Twilight
Astronomical Twilight
Moon
Length of Visible Light
Length of Day
Tomorrow will be .
, % of the Moon is Illuminated

Today's Extremes

State Highs State Lows

Community

WunderPhotos

Upload Photos

1,823,392 photos uploaded!

WunderBlogs® & News

Nearby

Air Quality

  Air Quality AQ Index Pollutant
Not available.

Snow Depth

Station Depth Elevation

Earthquake Activity

City Distance Mag. Time & Date
Minimum magnitude displayed is 2.5.

Coastal Water Temperatures

Place Temperature

Stations

Nearby Weather Stations

Station Location Temp. Windchill Dew Point Humidity Wind Precip. Elev Updated Type